METAR AND TAF INFORMATION
METAR FOR EGLC
ADDS - METARS form results

(1016 UTC 09 April 2020)
Data provider http://aviationweather.gov/metar/data/
 
METAR text: EGLC 090950Z AUTO 08009KT 5000 HZ NCD 16/09 Q1026
Conditions at: EGLC (LONDON CITY AIRP, GB) observed 0950 UTC 09 April 2020
Temperature: 16.0°C (61°F)
Dewpoint: 9.0°C (48°F) [RH = 63%]
Pressure (altimeter): 30.30 inches Hg (1026.0 mb)
Winds: from the E (80 degrees) at 10 MPH (9 knots; 4.6 m/s)
Visibility: 3 miles ( 5 km)
Ceiling: at least 12,000 feet AGL
Clouds: sky clear below 12,000 feet AGL
Weather: HZ  (haze)

METAR text: EGLC 090920Z AUTO 09008KT 5000 HZ NCD 16/08 Q1026
Conditions at: EGLC (LONDON CITY AIRP, GB) observed 0920 UTC 09 April 2020
Temperature: 16.0°C (61°F)
Dewpoint: 8.0°C (46°F) [RH = 59%]
Pressure (altimeter): 30.30 inches Hg (1026.0 mb)
Winds: from the E (90 degrees) at 9 MPH (8 knots; 4.1 m/s)
Visibility: 3 miles ( 5 km)
Ceiling: at least 12,000 feet AGL
Clouds: sky clear below 12,000 feet AGL
Weather: HZ  (haze)

 AIRPORT MAP

 RUNWAY INFORMATION
Runway 10 Runway length 4948 ft Runway width 98 ft
Runway elevation 16 ft Runway displaced threshold 358 ft Runway heading 93
Runway 28 Runway length 4948 ft Runway width 98 ft
Runway elevation 19 ft Runway displaced threshold 211 ft Runway heading 273

 AIRPORT FREQUENCIES
Type APP Name APP Frequency 132.7 MHZ
Type ATIS Name ATIS Frequency 136.35 MHZ
Type GND Name GND Frequency 121.825 MHZ
Type TWR Name TWR Frequency 118.075 MHZ

 AIRPORT NEAR NAVIGATION AIDS
Type NDB Name City Frequency 322 KHZ



Copyright © 2016 - 2020 - Smartbird VA, all rights reserved. Compagnie Aérienne Virtuelle

Powered by Virtual Airlines Manager [v2.6.2]